createdAt,value
2022-10-19T00:01:23.330Z,88.47
2022-10-19T00:03:52.355Z,88.52
2022-10-19T00:06:19.706Z,88.00
2022-10-19T00:08:45.683Z,88.74
2022-10-19T00:11:12.052Z,87.71
2022-10-19T00:13:38.489Z,88.05
2022-10-19T00:16:12.209Z,88.36
2022-10-19T00:18:38.967Z,88.30
2022-10-19T00:21:06.583Z,87.99
2022-10-19T00:23:32.501Z,88.11
2022-10-19T00:25:58.577Z,87.63
2022-10-19T00:28:24.284Z,87.82
2022-10-19T00:30:50.219Z,87.71
2022-10-19T00:33:20.573Z,87.42
2022-10-19T00:35:50.362Z,87.40
2022-10-19T00:38:17.298Z,87.65
2022-10-19T00:40:44.005Z,88.04
2022-10-19T00:43:24.595Z,87.94
2022-10-19T00:45:50.776Z,87.50
2022-10-19T00:48:20.424Z,87.44
2022-10-19T00:50:48.224Z,87.26
2022-10-19T00:53:14.024Z,87.26
2022-10-19T00:55:40.956Z,87.01
2022-10-19T00:58:07.105Z,87.24
2022-10-19T01:00:33.786Z,87.35
2022-10-19T01:03:00.735Z,87.35
2022-10-19T01:05:26.850Z,87.08
2022-10-19T01:07:53.520Z,87.61
2022-10-19T01:10:26.980Z,87.43
2022-10-19T01:13:11.129Z,87.63
2022-10-19T01:15:46.732Z,87.17
2022-10-19T01:18:32.929Z,86.97
2022-10-19T01:21:04.914Z,87.09
2022-10-19T01:23:46.374Z,86.95
2022-10-19T01:26:45.837Z,86.86
2022-10-19T01:29:26.638Z,86.88
2022-10-19T01:32:04.505Z,86.75
2022-10-19T01:34:47.573Z,87.05
2022-10-19T01:37:31.471Z,87.03
2022-10-19T01:40:08.393Z,87.12
2022-10-19T01:42:34.056Z,86.80
2022-10-19T01:45:18.197Z,87.02
2022-10-19T01:47:55.276Z,86.74
2022-10-19T01:50:28.340Z,86.81
2022-10-19T01:52:55.408Z,86.95
2022-10-19T01:55:23.258Z,86.85
2022-10-19T01:57:57.570Z,87.06
2022-10-19T02:00:25.119Z,86.76
2022-10-19T02:02:53.366Z,87.07
2022-10-19T02:05:22.229Z,87.25
2022-10-19T02:07:54.038Z,87.35
2022-10-19T02:10:21.037Z,87.13
2022-10-19T02:12:47.608Z,87.04
2022-10-19T02:15:21.970Z,86.96
2022-10-19T02:17:51.789Z,87.07
2022-10-19T02:20:19.460Z,87.30
2022-10-19T02:22:45.320Z,86.94
2022-10-19T02:25:12.042Z,87.05
2022-10-19T02:27:41.370Z,87.04
2022-10-19T02:30:13.917Z,86.92
2022-10-19T02:32:40.213Z,86.70
2022-10-19T02:35:06.454Z,86.63
2022-10-19T02:37:33.112Z,86.64
2022-10-19T02:39:58.955Z,86.59
2022-10-19T02:42:33.662Z,86.71
2022-10-19T02:45:17.822Z,86.68
2022-10-19T02:47:49.097Z,86.80
2022-10-19T02:50:16.514Z,86.99
2022-10-19T02:52:42.138Z,87.19
2022-10-19T02:55:08.071Z,87.04
2022-10-19T02:57:34.174Z,87.07
2022-10-19T03:00:00.133Z,87.01
2022-10-19T03:02:25.902Z,86.69
2022-10-19T03:04:51.583Z,87.41
2022-10-19T03:07:19.356Z,86.95
2022-10-19T03:09:45.756Z,87.07
2022-10-19T03:12:12.759Z,86.93
2022-10-19T03:14:38.520Z,87.34
2022-10-19T03:17:04.508Z,87.10
2022-10-19T03:19:30.626Z,87.46
2022-10-19T03:21:56.404Z,87.76
2022-10-19T03:24:22.627Z,87.74
2022-10-19T03:26:48.394Z,88.04
2022-10-19T03:29:14.181Z,87.88
2022-10-19T03:31:39.941Z,87.88
2022-10-19T03:34:05.627Z,87.62
2022-10-19T03:36:34.406Z,88.16
2022-10-19T03:39:03.755Z,87.65
2022-10-19T03:41:32.424Z,87.64
2022-10-19T03:46:30.519Z,87.60
2022-10-19T03:48:56.202Z,88.18
2022-10-19T03:51:25.090Z,88.01
2022-10-19T03:53:55.632Z,87.66
2022-10-19T03:56:23.446Z,87.70
2022-10-19T03:58:50.859Z,87.88
2022-10-19T04:01:18.710Z,88.34
2022-10-19T04:03:44.794Z,87.74
2022-10-19T04:06:18.356Z,87.93
2022-10-19T04:08:48.408Z,88.02
2022-10-19T04:11:16.058Z,88.15
2022-10-19T04:13:41.736Z,88.29
2022-10-19T04:16:08.672Z,88.31
2022-10-19T04:18:34.316Z,87.83
2022-10-19T04:21:02.615Z,88.01
2022-10-19T04:23:35.340Z,88.30
2022-10-19T04:26:07.207Z,88.25
2022-10-19T04:28:34.067Z,87.96
2022-10-19T04:31:04.948Z,88.30
2022-10-19T04:33:31.582Z,88.10
2022-10-19T04:35:59.165Z,88.38
2022-10-19T04:38:25.046Z,88.80
2022-10-19T04:40:50.800Z,88.44
2022-10-19T04:43:16.508Z,88.50
2022-10-19T04:45:42.144Z,88.27
2022-10-19T04:48:07.800Z,88.80
2022-10-19T04:50:33.484Z,88.31
2022-10-19T04:52:59.272Z,89.03
2022-10-19T04:55:24.977Z,89.00
2022-10-19T04:57:50.844Z,88.93
2022-10-19T05:00:16.644Z,88.93
2022-10-19T05:02:46.318Z,88.74
2022-10-19T05:05:14.060Z,88.89
2022-10-19T05:07:40.443Z,88.77
2022-10-19T05:10:07.950Z,89.07
2022-10-19T05:12:35.262Z,88.67
2022-10-19T05:15:00.986Z,88.78
2022-10-19T05:17:30.735Z,88.80
2022-10-19T05:19:56.881Z,88.55
2022-10-19T05:22:22.733Z,88.43
2022-10-19T05:24:48.734Z,88.51
2022-10-19T05:27:14.384Z,88.74
2022-10-19T05:29:40.222Z,88.25
2022-10-19T05:32:05.896Z,88.36
2022-10-19T05:34:31.566Z,88.07
2022-10-19T05:36:57.318Z,88.27
2022-10-19T05:39:23.288Z,87.84
2022-10-19T05:41:49.434Z,88.13
2022-10-19T05:44:18.051Z,88.00
2022-10-19T05:46:43.779Z,87.65
2022-10-19T05:49:11.195Z,87.96
2022-10-19T05:51:37.567Z,87.61
2022-10-19T05:54:03.883Z,88.01
2022-10-19T05:56:31.249Z,87.96
2022-10-19T05:58:58.244Z,88.04
2022-10-19T06:01:25.075Z,87.71
2022-10-19T06:03:52.990Z,87.59
2022-10-19T06:06:19.666Z,87.19
2022-10-19T06:08:45.500Z,87.17
2022-10-19T06:11:16.655Z,87.38
2022-10-19T06:13:44.100Z,87.91
2022-10-19T06:16:11.301Z,88.17
2022-10-19T06:18:38.125Z,87.96
2022-10-19T06:21:09.516Z,88.21
2022-10-19T06:23:35.559Z,88.56
2022-10-19T06:26:03.606Z,88.52
2022-10-19T06:28:29.668Z,88.30
2022-10-19T06:30:57.341Z,88.63
2022-10-19T06:33:23.291Z,89.00
2022-10-19T06:35:49.024Z,89.13
2022-10-19T06:38:14.756Z,89.49
2022-10-19T06:40:40.430Z,89.62
2022-10-19T06:43:06.189Z,89.48
2022-10-19T06:45:35.754Z,89.10
2022-10-19T06:48:04.975Z,89.19
2022-10-19T06:50:33.414Z,88.73
2022-10-19T06:52:59.258Z,88.08
2022-10-19T06:55:25.507Z,88.12
2022-10-19T06:57:51.168Z,88.39
2022-10-19T07:00:16.938Z,88.49
2022-10-19T07:02:42.916Z,88.69
2022-10-19T07:05:09.346Z,89.09
2022-10-19T07:07:35.884Z,89.08
2022-10-19T07:10:02.320Z,89.08
2022-10-19T07:12:28.433Z,88.07
2022-10-19T07:14:54.902Z,87.42
2022-10-19T07:17:20.966Z,87.70
2022-10-19T07:19:46.732Z,87.69
2022-10-19T07:22:17.333Z,87.17
2022-10-19T07:24:46.544Z,86.44
2022-10-19T07:27:12.732Z,86.23
2022-10-19T07:29:38.570Z,86.16
2022-10-19T07:32:04.460Z,86.23
2022-10-19T07:34:30.111Z,86.46
2022-10-19T07:36:55.857Z,86.47
2022-10-19T07:39:21.731Z,85.86
2022-10-19T07:41:47.395Z,85.75
2022-10-19T07:44:15.745Z,85.02
2022-10-19T07:46:42.366Z,85.63
2022-10-19T07:49:13.059Z,85.43
2022-10-19T07:51:39.478Z,85.54
2022-10-19T07:54:05.827Z,84.90
2022-10-19T07:56:31.751Z,85.12
2022-10-19T07:58:59.189Z,84.98
2022-10-19T08:01:27.650Z,84.97
2022-10-19T08:06:40.683Z,83.92
2022-10-19T08:09:06.543Z,83.60
2022-10-19T08:11:34.460Z,84.15
2022-10-19T08:14:02.305Z,84.47
2022-10-19T08:16:36.715Z,83.28
2022-10-19T08:19:06.384Z,83.96
2022-10-19T08:21:32.384Z,84.98
2022-10-19T08:23:58.387Z,84.91
2022-10-19T08:26:25.144Z,84.76
2022-10-19T08:28:51.009Z,84.24
2022-10-19T08:31:21.801Z,83.67
2022-10-19T08:33:49.860Z,84.38
2022-10-19T08:36:16.297Z,84.59
2022-10-19T08:38:43.987Z,84.64
2022-10-19T08:41:25.336Z,84.67
2022-10-19T08:44:06.371Z,84.24
2022-10-19T08:47:02.704Z,83.97
2022-10-19T08:49:31.049Z,83.72
2022-10-19T08:52:19.339Z,83.72
2022-10-19T08:54:50.650Z,83.51
2022-10-19T08:57:38.565Z,84.28
2022-10-19T09:00:34.809Z,83.58
2022-10-19T09:03:22.992Z,84.17
2022-10-19T09:06:21.986Z,83.88
2022-10-19T09:08:51.012Z,84.59
2022-10-19T09:11:22.849Z,84.28
2022-10-19T09:14:04.640Z,83.95
2022-10-19T09:16:31.827Z,84.28
2022-10-19T09:18:57.730Z,83.61
2022-10-19T09:21:47.239Z,83.32
2022-10-19T09:24:29.210Z,82.87
2022-10-19T09:26:58.597Z,82.83
2022-10-19T09:29:31.229Z,82.81
2022-10-19T09:32:00.006Z,82.22
2022-10-19T09:34:31.096Z,82.34
2022-10-19T09:36:58.489Z,82.67
2022-10-19T09:39:27.073Z,83.25
2022-10-19T09:42:16.920Z,83.10
2022-10-19T09:44:42.921Z,83.18
2022-10-19T09:47:35.175Z,82.54
2022-10-19T09:50:23.562Z,81.66
2022-10-19T09:52:55.561Z,80.82
2022-10-19T09:55:36.161Z,80.33
2022-10-19T09:58:13.844Z,80.51
2022-10-19T10:00:51.240Z,80.89
2022-10-19T10:03:30.367Z,80.31
2022-10-19T10:05:58.998Z,80.69
2022-10-19T10:08:32.368Z,79.80
2022-10-19T10:10:57.953Z,80.26
2022-10-19T10:13:26.814Z,81.19
2022-10-19T10:15:58.624Z,80.09
2022-10-19T10:18:27.077Z,80.18
2022-10-19T10:21:00.471Z,79.20
2022-10-19T10:23:28.350Z,79.01
2022-10-19T10:26:00.028Z,78.63
2022-10-19T10:28:27.842Z,79.15
2022-10-19T10:31:05.496Z,78.04
2022-10-19T10:33:50.411Z,78.21
2022-10-19T10:36:17.406Z,77.41
2022-10-19T10:38:51.133Z,77.51
2022-10-19T10:41:22.345Z,77.23
2022-10-19T10:44:00.771Z,77.72
2022-10-19T10:46:36.424Z,77.52
2022-10-19T10:49:07.145Z,77.22
2022-10-19T10:51:42.093Z,77.75
2022-10-19T10:54:22.645Z,76.60
2022-10-19T10:57:15.943Z,76.45
2022-10-19T11:00:07.420Z,76.25
2022-10-19T11:02:40.467Z,76.85
2022-10-19T11:05:26.504Z,74.85
2022-10-19T11:08:06.298Z,75.15
2022-10-19T11:10:40.421Z,75.15
2022-10-19T11:13:17.229Z,75.16
2022-10-19T11:16:01.413Z,75.43
2022-10-19T11:18:33.749Z,75.73
2022-10-19T11:21:18.339Z,74.49
2022-10-19T11:23:51.295Z,73.78
2022-10-19T11:27:12.675Z,73.67
2022-10-19T11:30:01.607Z,74.77
2022-10-19T11:32:47.938Z,74.17
2022-10-19T11:35:19.247Z,72.99
2022-10-19T11:38:18.330Z,72.92
2022-10-19T11:41:13.268Z,73.43
2022-10-19T11:43:57.214Z,73.00
2022-10-19T11:46:38.079Z,73.64
2022-10-19T11:49:25.816Z,73.81
2022-10-19T11:52:23.953Z,72.02
2022-10-19T11:55:02.904Z,72.71
2022-10-19T11:57:44.206Z,68.70
2022-10-19T12:00:27.235Z,71.08
2022-10-19T12:03:19.497Z,69.91
2022-10-19T12:06:12.474Z,68.03
2022-10-19T12:08:57.202Z,68.84
2022-10-19T12:11:50.020Z,69.83
2022-10-19T12:14:21.280Z,70.31
2022-10-19T12:16:52.372Z,68.81
2022-10-19T12:19:23.462Z,69.41
2022-10-19T12:21:50.906Z,69.45
2022-10-19T12:24:21.848Z,69.21
2022-10-19T12:26:51.056Z,67.67
2022-10-19T12:29:26.766Z,69.41
2022-10-19T12:31:54.225Z,69.80
2022-10-19T12:34:25.781Z,68.06
2022-10-19T12:37:02.480Z,68.32
2022-10-19T12:39:46.006Z,68.09
2022-10-19T12:42:45.985Z,66.54
2022-10-19T12:45:29.470Z,67.11
2022-10-19T12:48:07.540Z,62.53
2022-10-19T12:50:59.909Z,64.28
2022-10-19T12:53:37.507Z,64.95
2022-10-19T12:56:09.275Z,62.83
2022-10-19T12:58:45.060Z,63.21
2022-10-19T13:01:19.770Z,62.75
2022-10-19T13:03:48.256Z,63.81
2022-10-19T13:06:23.190Z,60.36
2022-10-19T13:08:57.853Z,61.77
2022-10-19T13:11:23.861Z,61.65
2022-10-19T13:14:06.112Z,60.20
2022-10-19T13:16:40.529Z,60.81
2022-10-19T13:19:11.916Z,61.90
2022-10-19T13:21:49.424Z,62.64
2022-10-19T13:24:24.039Z,62.61
2022-10-19T13:27:15.487Z,63.29
2022-10-19T13:29:44.039Z,65.08
2022-10-19T13:32:34.318Z,65.21
2022-10-19T13:35:28.023Z,64.76
2022-10-19T13:38:15.310Z,65.59
2022-10-19T13:41:12.540Z,65.03
2022-10-19T13:43:42.668Z,65.54
2022-10-19T13:46:10.177Z,65.41
2022-10-19T13:49:17.966Z,65.06
2022-10-19T13:52:02.350Z,63.75
2022-10-19T13:54:49.677Z,64.99
2022-10-19T13:57:43.387Z,63.35
2022-10-19T14:00:20.780Z,62.16
2022-10-19T14:03:12.225Z,61.93
2022-10-19T14:05:46.552Z,61.75
2022-10-19T14:08:21.287Z,60.88
2022-10-19T14:11:01.023Z,61.02
2022-10-19T14:13:27.731Z,61.49
2022-10-19T14:15:56.322Z,61.90
2022-10-19T14:18:26.429Z,63.00
2022-10-19T14:20:59.608Z,62.69
2022-10-19T14:23:28.138Z,63.76
2022-10-19T14:26:01.221Z,63.30
2022-10-19T14:28:28.055Z,64.38
2022-10-19T14:31:02.636Z,63.64
2022-10-19T14:33:32.420Z,64.08
2022-10-19T14:35:58.501Z,63.72
2022-10-19T14:38:39.405Z,63.08
2022-10-19T14:41:16.551Z,64.13
2022-10-19T14:43:42.505Z,64.08
2022-10-19T14:46:15.129Z,64.36
2022-10-19T14:48:49.570Z,63.64
2022-10-19T14:51:27.914Z,64.73
2022-10-19T14:54:23.976Z,63.54
2022-10-19T14:56:55.321Z,63.07
2022-10-19T14:59:27.485Z,63.75
2022-10-19T15:01:56.258Z,63.03
2022-10-19T15:04:27.037Z,64.26
2022-10-19T15:06:54.319Z,63.15
2022-10-19T15:09:37.026Z,63.46
2022-10-19T15:12:15.932Z,63.35
2022-10-19T15:14:42.386Z,64.06
2022-10-19T15:17:24.066Z,63.10
2022-10-19T15:19:49.741Z,64.23
2022-10-19T15:22:30.449Z,63.33
2022-10-19T15:24:57.928Z,63.63
2022-10-19T15:27:37.217Z,64.37
2022-10-19T15:30:04.738Z,64.31
2022-10-19T15:32:34.816Z,65.18
2022-10-19T15:35:15.660Z,63.99
2022-10-19T15:37:43.637Z,64.46
2022-10-19T15:40:12.629Z,64.83
2022-10-19T15:42:41.189Z,65.53
2022-10-19T15:45:33.734Z,65.06
2022-10-19T15:48:20.942Z,65.36
2022-10-19T15:50:48.060Z,65.79
2022-10-19T15:53:14.704Z,66.19
2022-10-19T15:55:40.486Z,66.42
2022-10-19T15:58:08.360Z,67.13
2022-10-19T16:00:34.069Z,67.24
2022-10-19T16:02:59.822Z,67.44
2022-10-19T16:05:25.502Z,67.47
2022-10-19T16:07:51.192Z,67.58
2022-10-19T16:10:20.927Z,67.79
2022-10-19T16:12:46.579Z,68.34
2022-10-19T16:15:21.390Z,68.28
2022-10-19T16:17:50.079Z,68.52
2022-10-19T16:20:16.584Z,68.84
2022-10-19T16:22:43.095Z,69.05
2022-10-19T16:25:10.911Z,69.47
2022-10-19T16:27:37.060Z,69.67
2022-10-19T16:30:04.222Z,70.00
2022-10-19T16:32:29.985Z,70.01
2022-10-19T16:34:55.827Z,70.10
2022-10-19T16:37:21.587Z,70.46
2022-10-19T16:39:47.266Z,71.22
2022-10-19T16:42:13.009Z,72.71
2022-10-19T16:44:38.756Z,71.98
2022-10-19T16:47:05.093Z,72.04
2022-10-19T16:49:31.117Z,72.47
2022-10-19T16:51:57.737Z,72.38
2022-10-19T16:54:26.074Z,72.65
2022-10-19T16:56:51.932Z,72.67
2022-10-19T16:59:18.320Z,73.22
2022-10-19T17:01:45.230Z,73.26
2022-10-19T17:04:12.484Z,73.65
2022-10-19T17:06:38.295Z,74.03
2022-10-19T17:11:50.538Z,74.17
2022-10-19T17:14:16.447Z,74.21
2022-10-19T17:16:42.180Z,74.48
2022-10-19T17:19:09.696Z,74.56
2022-10-19T17:21:37.780Z,74.87
2022-10-19T17:24:06.413Z,74.47
2022-10-19T17:26:37.766Z,74.72
2022-10-19T17:29:04.752Z,75.21
2022-10-19T17:31:30.724Z,75.16
2022-10-19T17:33:57.217Z,75.24
2022-10-19T17:36:31.129Z,76.57
2022-10-19T17:39:03.197Z,76.29
2022-10-19T17:41:29.724Z,76.96
2022-10-19T17:43:56.128Z,76.04
2022-10-19T17:46:25.586Z,76.13
2022-10-19T17:48:51.275Z,75.81
2022-10-19T17:51:20.678Z,75.86
2022-10-19T17:53:49.670Z,75.58
2022-10-19T17:56:18.186Z,75.52
2022-10-19T17:58:44.543Z,75.55
2022-10-19T18:01:15.988Z,76.08
2022-10-19T18:03:41.766Z,75.79
2022-10-19T18:06:13.103Z,75.90
2022-10-19T18:08:41.884Z,76.54
2022-10-19T18:11:11.191Z,76.02
2022-10-19T18:16:12.077Z,75.86
2022-10-19T18:18:39.801Z,76.20
2022-10-19T18:21:10.950Z,76.16
2022-10-19T18:23:37.370Z,76.34
2022-10-19T18:26:09.158Z,76.83
2022-10-19T18:28:35.439Z,77.05
2022-10-19T18:31:06.363Z,77.08
2022-10-19T18:33:32.608Z,76.94
2022-10-19T18:35:58.411Z,77.58
2022-10-19T18:38:24.179Z,77.55
2022-10-19T18:40:50.070Z,78.08
2022-10-19T18:43:15.786Z,77.84
2022-10-19T18:45:53.989Z,78.86
2022-10-19T18:48:20.445Z,78.79
2022-10-19T18:50:47.107Z,77.64
2022-10-19T18:53:13.885Z,77.91
2022-10-19T18:55:40.414Z,77.83
2022-10-19T18:58:07.206Z,78.42
2022-10-19T19:00:33.268Z,78.25
2022-10-19T19:02:59.130Z,78.59
2022-10-19T19:05:24.885Z,78.72
2022-10-19T19:07:50.856Z,78.83
2022-10-19T19:10:17.046Z,78.98
2022-10-19T19:12:43.308Z,79.04
2022-10-19T19:15:10.436Z,78.66
2022-10-19T19:17:37.490Z,79.03
2022-10-19T19:20:04.706Z,79.24
2022-10-19T19:22:30.459Z,79.02
2022-10-19T19:24:56.528Z,79.43
2022-10-19T19:27:26.164Z,79.33
2022-10-19T19:29:56.200Z,79.51
2022-10-19T19:32:21.998Z,79.19
2022-10-19T19:34:52.432Z,79.40
2022-10-19T19:37:20.412Z,79.63
2022-10-19T19:39:46.077Z,80.31
2022-10-19T19:42:12.402Z,79.70
2022-10-19T19:44:38.112Z,79.54
2022-10-19T19:47:03.781Z,79.75
2022-10-19T19:49:29.521Z,80.32
2022-10-19T19:51:55.185Z,79.93
2022-10-19T19:54:21.918Z,80.46
2022-10-19T19:56:51.953Z,80.03
2022-10-19T19:59:17.998Z,80.07
2022-10-19T20:01:44.122Z,80.37
2022-10-19T20:04:10.554Z,79.99
2022-10-19T20:06:38.283Z,80.45
2022-10-19T20:09:06.360Z,80.53
2022-10-19T20:11:32.465Z,80.80
2022-10-19T20:13:58.236Z,80.43
2022-10-19T20:16:32.723Z,80.43
2022-10-19T20:19:03.816Z,80.57
2022-10-19T20:21:30.953Z,80.33
2022-10-19T20:23:56.913Z,80.47
2022-10-19T20:26:23.871Z,80.93
2022-10-19T20:28:50.290Z,81.05
2022-10-19T20:31:16.117Z,81.22
2022-10-19T20:33:43.148Z,80.63
2022-10-19T20:36:16.939Z,81.28
2022-10-19T20:38:49.069Z,80.91
2022-10-19T20:41:18.271Z,81.13
2022-10-19T20:43:44.090Z,80.57
2022-10-19T20:46:16.923Z,81.11
2022-10-19T20:48:43.864Z,80.48
2022-10-19T20:51:32.046Z,80.73
2022-10-19T20:53:59.913Z,81.40
2022-10-19T20:56:26.734Z,81.19
2022-10-19T20:58:57.186Z,81.17
2022-10-19T21:01:23.520Z,81.32
2022-10-19T21:03:54.811Z,81.42
2022-10-19T21:06:22.866Z,81.58
2022-10-19T21:08:49.388Z,81.37
2022-10-19T21:11:24.533Z,81.45
2022-10-19T21:13:55.505Z,81.34
2022-10-19T21:16:22.619Z,81.34
2022-10-19T21:18:49.953Z,81.42
2022-10-19T21:21:44.843Z,81.68
2022-10-19T21:24:31.724Z,82.35
2022-10-19T21:27:00.566Z,81.71
2022-10-19T21:29:26.648Z,82.53
2022-10-19T21:31:52.874Z,82.31
2022-10-19T21:34:29.356Z,82.88
2022-10-19T21:36:55.252Z,82.62
2022-10-19T21:39:21.483Z,82.50
2022-10-19T21:41:48.089Z,82.27
2022-10-19T21:44:15.449Z,82.50
2022-10-19T21:46:42.803Z,82.46
2022-10-19T21:49:11.282Z,82.01
2022-10-19T21:51:48.012Z,82.38
2022-10-19T21:54:18.828Z,82.66
2022-10-19T21:56:45.873Z,82.53
2022-10-19T21:59:12.239Z,82.86
2022-10-19T22:01:41.068Z,83.31
2022-10-19T22:04:11.631Z,83.63
2022-10-19T22:06:37.342Z,83.63
2022-10-19T22:09:06.119Z,83.21
2022-10-19T22:11:32.053Z,83.12
2022-10-19T22:13:59.765Z,83.51
2022-10-19T22:16:26.514Z,83.68
2022-10-19T22:18:52.621Z,83.49
2022-10-19T22:21:21.134Z,84.13
2022-10-19T22:23:55.818Z,85.73
2022-10-19T22:26:24.534Z,84.70
2022-10-19T22:28:50.341Z,84.81
2022-10-19T22:31:16.103Z,84.43
2022-10-19T22:33:41.790Z,84.22
2022-10-19T22:36:12.656Z,84.82
2022-10-19T22:38:38.936Z,83.60
2022-10-19T22:41:05.162Z,84.06
2022-10-19T22:43:30.969Z,84.08
2022-10-19T22:45:56.908Z,83.58
2022-10-19T22:48:22.758Z,83.82
2022-10-19T22:50:52.486Z,83.54
2022-10-19T22:53:18.406Z,83.71
2022-10-19T22:55:44.109Z,83.38
2022-10-19T23:00:40.717Z,82.98
2022-10-19T23:03:06.467Z,83.17
2022-10-19T23:05:32.235Z,83.49
2022-10-19T23:07:58.090Z,83.13
2022-10-19T23:10:23.879Z,83.42
2022-10-19T23:12:50.920Z,83.24
2022-10-19T23:15:17.422Z,83.04
2022-10-19T23:17:43.169Z,83.67
2022-10-19T23:20:09.690Z,82.92
2022-10-19T23:22:35.463Z,83.06
2022-10-19T23:25:07.445Z,83.89
2022-10-19T23:27:33.824Z,83.58
2022-10-19T23:29:59.913Z,83.23
2022-10-19T23:32:25.676Z,83.07
2022-10-19T23:34:51.421Z,83.89
2022-10-19T23:37:17.459Z,83.88
2022-10-19T23:39:43.196Z,83.38
2022-10-19T23:42:08.982Z,83.47
2022-10-19T23:44:34.723Z,83.98
2022-10-19T23:47:00.800Z,83.33
2022-10-19T23:49:26.595Z,83.96
2022-10-19T23:51:52.340Z,83.87
2022-10-19T23:54:18.013Z,83.50
2022-10-19T23:56:43.807Z,84.20
2022-10-19T23:59:09.897Z,84.25
